sensor_id;sensor_type;location;lat;lon;timestamp;temperature;humidity
4564;DHT22;2294;51.818;8.484;2022-11-04T00:01:24;12.40;99.90
4564;DHT22;2294;51.818;8.484;2022-11-04T00:03:52;12.40;99.90
4564;DHT22;2294;51.818;8.484;2022-11-04T00:06:21;12.30;99.90
4564;DHT22;2294;51.818;8.484;2022-11-04T00:08:49;12.40;99.90
4564;DHT22;2294;51.818;8.484;2022-11-04T00:11:16;12.40;99.90
4564;DHT22;2294;51.818;8.484;2022-11-04T00:14:01;12.40;99.90
4564;DHT22;2294;51.818;8.484;2022-11-04T00:16:28;12.40;99.90
4564;DHT22;2294;51.818;8.484;2022-11-04T00:19:12;12.30;99.90
4564;DHT22;2294;51.818;8.484;2022-11-04T00:21:40;12.40;99.90
4564;DHT22;2294;51.818;8.484;2022-11-04T00:24:24;12.40;99.90
4564;DHT22;2294;51.818;8.484;2022-11-04T00:27:09;12.40;99.90
4564;DHT22;2294;51.818;8.484;2022-11-04T00:29:53;12.30;99.90
4564;DHT22;2294;51.818;8.484;2022-11-04T00:32:20;12.40;99.90
4564;DHT22;2294;51.818;8.484;2022-11-04T00:35:05;12.40;99.90
4564;DHT22;2294;51.818;8.484;2022-11-04T00:37:36;12.40;99.90
4564;DHT22;2294;51.818;8.484;2022-11-04T00:40:04;12.40;99.90
4564;DHT22;2294;51.818;8.484;2022-11-04T00:42:31;12.40;99.90
4564;DHT22;2294;51.818;8.484;2022-11-04T00:44:58;12.40;99.90
4564;DHT22;2294;51.818;8.484;2022-11-04T00:47:25;12.40;99.90
4564;DHT22;2294;51.818;8.484;2022-11-04T00:49:52;12.40;99.90
4564;DHT22;2294;51.818;8.484;2022-11-04T00:52:19;12.40;99.90
4564;DHT22;2294;51.818;8.484;2022-11-04T00:54:48;12.40;99.90
4564;DHT22;2294;51.818;8.484;2022-11-04T00:57:15;12.40;99.90
4564;DHT22;2294;51.818;8.484;2022-11-04T00:59:42;12.30;99.90
4564;DHT22;2294;51.818;8.484;2022-11-04T01:02:10;12.30;99.90
4564;DHT22;2294;51.818;8.484;2022-11-04T01:04:38;12.30;99.90
4564;DHT22;2294;51.818;8.484;2022-11-04T01:07:05;12.30;99.90
4564;DHT22;2294;51.818;8.484;2022-11-04T01:09:32;12.20;99.90
4564;DHT22;2294;51.818;8.484;2022-11-04T01:12:00;12.20;99.90
4564;DHT22;2294;51.818;8.484;2022-11-04T01:14:27;12.10;99.90
4564;DHT22;2294;51.818;8.484;2022-11-04T01:16:54;12.10;99.90
4564;DHT22;2294;51.818;8.484;2022-11-04T01:19:20;12.10;99.90
4564;DHT22;2294;51.818;8.484;2022-11-04T01:21:50;12.00;99.90
4564;DHT22;2294;51.818;8.484;2022-11-04T01:24:17;11.90;99.90
4564;DHT22;2294;51.818;8.484;2022-11-04T01:26:44;11.90;99.90
4564;DHT22;2294;51.818;8.484;2022-11-04T01:29:12;11.80;99.90
4564;DHT22;2294;51.818;8.484;2022-11-04T01:31:39;11.70;99.90
4564;DHT22;2294;51.818;8.484;2022-11-04T01:34:06;11.80;99.90
4564;DHT22;2294;51.818;8.484;2022-11-04T01:36:33;11.80;99.90
4564;DHT22;2294;51.818;8.484;2022-11-04T01:39:00;11.70;99.90
4564;DHT22;2294;51.818;8.484;2022-11-04T01:41:29;11.60;99.90
4564;DHT22;2294;51.818;8.484;2022-11-04T01:43:58;11.60;99.90
4564;DHT22;2294;51.818;8.484;2022-11-04T01:46:36;11.60;99.90
4564;DHT22;2294;51.818;8.484;2022-11-04T01:49:18;11.60;99.90
4564;DHT22;2294;51.818;8.484;2022-11-04T01:51:48;11.60;99.90
4564;DHT22;2294;51.818;8.484;2022-11-04T01:54:17;11.50;99.90
4564;DHT22;2294;51.818;8.484;2022-11-04T01:56:45;11.50;99.90
4564;DHT22;2294;51.818;8.484;2022-11-04T01:59:17;11.40;99.90
4564;DHT22;2294;51.818;8.484;2022-11-04T02:01:48;11.40;99.90
4564;DHT22;2294;51.818;8.484;2022-11-04T02:04:15;11.30;99.90
4564;DHT22;2294;51.818;8.484;2022-11-04T02:06:53;11.30;99.90
4564;DHT22;2294;51.818;8.484;2022-11-04T02:09:21;11.20;99.90
4564;DHT22;2294;51.818;8.484;2022-11-04T02:11:49;11.30;99.90
4564;DHT22;2294;51.818;8.484;2022-11-04T02:14:34;11.10;99.90
4564;DHT22;2294;51.818;8.484;2022-11-04T02:17:11;11.10;99.90
4564;DHT22;2294;51.818;8.484;2022-11-04T02:19:56;11.10;99.90
4564;DHT22;2294;51.818;8.484;2022-11-04T02:22:41;11.10;99.90
4564;DHT22;2294;51.818;8.484;2022-11-04T02:25:33;11.10;99.90
4564;DHT22;2294;51.818;8.484;2022-11-04T02:31:08;11.20;99.90
4564;DHT22;2294;51.818;8.484;2022-11-04T02:33:43;11.00;99.90
4564;DHT22;2294;51.818;8.484;2022-11-04T02:36:17;11.00;99.90
4564;DHT22;2294;51.818;8.484;2022-11-04T02:38:50;11.00;99.90
4564;DHT22;2294;51.818;8.484;2022-11-04T02:41:27;10.90;99.90
4564;DHT22;2294;51.818;8.484;2022-11-04T02:44:05;10.90;99.90
4564;DHT22;2294;51.818;8.484;2022-11-04T02:46:41;11.00;99.90
4564;DHT22;2294;51.818;8.484;2022-11-04T02:49:12;10.90;99.90
4564;DHT22;2294;51.818;8.484;2022-11-04T02:51:43;10.80;99.90
4564;DHT22;2294;51.818;8.484;2022-11-04T02:54:16;10.80;99.90
4564;DHT22;2294;51.818;8.484;2022-11-04T02:56:49;10.70;99.90
4564;DHT22;2294;51.818;8.484;2022-11-04T02:59:21;10.70;99.90
4564;DHT22;2294;51.818;8.484;2022-11-04T03:01:51;10.70;99.90
4564;DHT22;2294;51.818;8.484;2022-11-04T03:04:23;10.80;99.90
4564;DHT22;2294;51.818;8.484;2022-11-04T03:06:53;10.80;99.90
4564;DHT22;2294;51.818;8.484;2022-11-04T03:09:22;10.80;99.90
4564;DHT22;2294;51.818;8.484;2022-11-04T03:11:51;10.90;99.90
4564;DHT22;2294;51.818;8.484;2022-11-04T03:14:23;10.90;99.90
4564;DHT22;2294;51.818;8.484;2022-11-04T03:16:57;11.00;99.90
4564;DHT22;2294;51.818;8.484;2022-11-04T03:19:29;11.00;99.90
4564;DHT22;2294;51.818;8.484;2022-11-04T03:22:02;10.90;99.90
4564;DHT22;2294;51.818;8.484;2022-11-04T03:24:30;11.00;99.90
4564;DHT22;2294;51.818;8.484;2022-11-04T03:26:59;11.00;99.90
4564;DHT22;2294;51.818;8.484;2022-11-04T03:29:31;10.90;99.90
4564;DHT22;2294;51.818;8.484;2022-11-04T03:32:05;10.90;99.90
4564;DHT22;2294;51.818;8.484;2022-11-04T03:34:35;10.80;99.90
4564;DHT22;2294;51.818;8.484;2022-11-04T03:37:03;10.80;99.90
4564;DHT22;2294;51.818;8.484;2022-11-04T03:39:30;10.80;99.90
4564;DHT22;2294;51.818;8.484;2022-11-04T03:41:59;10.60;99.90
4564;DHT22;2294;51.818;8.484;2022-11-04T03:44:28;10.60;99.90
4564;DHT22;2294;51.818;8.484;2022-11-04T03:46:56;10.50;99.90
4564;DHT22;2294;51.818;8.484;2022-11-04T03:49:24;10.40;99.90
4564;DHT22;2294;51.818;8.484;2022-11-04T03:51:52;10.30;99.90
4564;DHT22;2294;51.818;8.484;2022-11-04T03:54:19;10.40;99.90
4564;DHT22;2294;51.818;8.484;2022-11-04T04:02:56;10.30;99.90
4564;DHT22;2294;51.818;8.484;2022-11-04T04:05:28;10.20;99.90
4564;DHT22;2294;51.818;8.484;2022-11-04T04:08:09;10.20;99.90
4564;DHT22;2294;51.818;8.484;2022-11-04T04:10:41;10.20;99.90
4564;DHT22;2294;51.818;8.484;2022-11-04T04:13:18;10.20;99.90
4564;DHT22;2294;51.818;8.484;2022-11-04T04:15:51;10.30;99.90
4564;DHT22;2294;51.818;8.484;2022-11-04T04:18:26;10.40;99.90
4564;DHT22;2294;51.818;8.484;2022-11-04T04:20:58;10.50;99.90
4564;DHT22;2294;51.818;8.484;2022-11-04T04:23:30;10.50;99.90
4564;DHT22;2294;51.818;8.484;2022-11-04T04:26:18;10.50;99.90
4564;DHT22;2294;51.818;8.484;2022-11-04T04:29:04;10.40;99.90
4564;DHT22;2294;51.818;8.484;2022-11-04T04:31:32;10.40;99.90
4564;DHT22;2294;51.818;8.484;2022-11-04T04:34:18;10.40;99.90
4564;DHT22;2294;51.818;8.484;2022-11-04T04:36:51;10.40;99.90
4564;DHT22;2294;51.818;8.484;2022-11-04T04:39:21;10.30;99.90
4564;DHT22;2294;51.818;8.484;2022-11-04T04:42:07;10.10;99.90
4564;DHT22;2294;51.818;8.484;2022-11-04T04:44:52;10.10;99.90
4564;DHT22;2294;51.818;8.484;2022-11-04T04:47:35;10.10;99.90
4564;DHT22;2294;51.818;8.484;2022-11-04T04:50:04;10.00;99.90
4564;DHT22;2294;51.818;8.484;2022-11-04T04:52:36;10.10;99.90
4564;DHT22;2294;51.818;8.484;2022-11-04T04:55:04;9.90;99.90
4564;DHT22;2294;51.818;8.484;2022-11-04T04:57:31;10.00;99.90
4564;DHT22;2294;51.818;8.484;2022-11-04T04:59:58;10.10;99.90
4564;DHT22;2294;51.818;8.484;2022-11-04T05:02:25;10.10;99.90
4564;DHT22;2294;51.818;8.484;2022-11-04T05:04:52;10.10;99.90
4564;DHT22;2294;51.818;8.484;2022-11-04T05:07:20;10.10;99.90
4564;DHT22;2294;51.818;8.484;2022-11-04T05:09:49;10.10;99.90
4564;DHT22;2294;51.818;8.484;2022-11-04T05:12:16;9.90;99.90
4564;DHT22;2294;51.818;8.484;2022-11-04T05:14:43;9.90;99.90
4564;DHT22;2294;51.818;8.484;2022-11-04T05:17:10;9.80;99.90
4564;DHT22;2294;51.818;8.484;2022-11-04T05:19:37;9.80;99.90
4564;DHT22;2294;51.818;8.484;2022-11-04T05:22:04;9.90;99.90
4564;DHT22;2294;51.818;8.484;2022-11-04T05:24:31;10.00;99.90
4564;DHT22;2294;51.818;8.484;2022-11-04T05:26:59;10.20;99.90
4564;DHT22;2294;51.818;8.484;2022-11-04T05:29:26;10.20;99.90
4564;DHT22;2294;51.818;8.484;2022-11-04T05:31:53;10.20;99.90
4564;DHT22;2294;51.818;8.484;2022-11-04T05:34:20;10.30;99.90
4564;DHT22;2294;51.818;8.484;2022-11-04T05:36:47;10.30;99.90
4564;DHT22;2294;51.818;8.484;2022-11-04T05:39:14;10.30;99.90
4564;DHT22;2294;51.818;8.484;2022-11-04T05:41:40;10.40;99.90
4564;DHT22;2294;51.818;8.484;2022-11-04T05:44:09;10.40;99.90
4564;DHT22;2294;51.818;8.484;2022-11-04T05:46:37;10.40;99.90
4564;DHT22;2294;51.818;8.484;2022-11-04T05:49:04;10.30;99.90
4564;DHT22;2294;51.818;8.484;2022-11-04T05:51:30;10.40;99.90
4564;DHT22;2294;51.818;8.484;2022-11-04T05:53:57;10.40;99.90
4564;DHT22;2294;51.818;8.484;2022-11-04T05:56:24;10.40;99.90
4564;DHT22;2294;51.818;8.484;2022-11-04T05:58:51;10.40;99.90
4564;DHT22;2294;51.818;8.484;2022-11-04T06:01:29;10.40;99.90
4564;DHT22;2294;51.818;8.484;2022-11-04T06:03:57;10.40;99.90
4564;DHT22;2294;51.818;8.484;2022-11-04T06:06:26;10.40;99.90
4564;DHT22;2294;51.818;8.484;2022-11-04T06:08:54;10.40;99.90
4564;DHT22;2294;51.818;8.484;2022-11-04T06:11:22;10.40;99.90
4564;DHT22;2294;51.818;8.484;2022-11-04T06:13:50;10.40;99.90
4564;DHT22;2294;51.818;8.484;2022-11-04T06:16:17;10.50;99.90
4564;DHT22;2294;51.818;8.484;2022-11-04T06:18:45;10.40;99.90
4564;DHT22;2294;51.818;8.484;2022-11-04T06:21:24;10.50;99.90
4564;DHT22;2294;51.818;8.484;2022-11-04T06:23:51;10.40;99.90
4564;DHT22;2294;51.818;8.484;2022-11-04T06:26:19;10.40;99.90
4564;DHT22;2294;51.818;8.484;2022-11-04T06:28:46;10.50;99.90
4564;DHT22;2294;51.818;8.484;2022-11-04T06:31:14;10.40;99.90
4564;DHT22;2294;51.818;8.484;2022-11-04T06:33:41;10.40;99.90
4564;DHT22;2294;51.818;8.484;2022-11-04T06:36:12;10.40;99.90
4564;DHT22;2294;51.818;8.484;2022-11-04T06:38:39;10.40;99.90
4564;DHT22;2294;51.818;8.484;2022-11-04T06:41:09;10.30;99.90
4564;DHT22;2294;51.818;8.484;2022-11-04T06:43:36;10.20;99.90
4564;DHT22;2294;51.818;8.484;2022-11-04T06:46:03;10.20;99.90
4564;DHT22;2294;51.818;8.484;2022-11-04T06:48:30;10.00;99.90
4564;DHT22;2294;51.818;8.484;2022-11-04T06:50:58;10.00;99.90
4564;DHT22;2294;51.818;8.484;2022-11-04T06:53:27;10.00;99.90
4564;DHT22;2294;51.818;8.484;2022-11-04T06:56:01;10.00;99.90
4564;DHT22;2294;51.818;8.484;2022-11-04T06:58:30;10.00;99.90
4564;DHT22;2294;51.818;8.484;2022-11-04T07:00:57;10.00;99.90
4564;DHT22;2294;51.818;8.484;2022-11-04T07:03:24;10.00;99.90
4564;DHT22;2294;51.818;8.484;2022-11-04T07:05:51;10.10;99.90
4564;DHT22;2294;51.818;8.484;2022-11-04T07:08:18;10.10;99.90
4564;DHT22;2294;51.818;8.484;2022-11-04T07:10:46;10.20;99.90
4564;DHT22;2294;51.818;8.484;2022-11-04T07:13:14;10.20;99.90
4564;DHT22;2294;51.818;8.484;2022-11-04T07:15:41;10.20;99.90
4564;DHT22;2294;51.818;8.484;2022-11-04T07:18:08;10.20;99.90
4564;DHT22;2294;51.818;8.484;2022-11-04T07:20:35;10.30;99.90
4564;DHT22;2294;51.818;8.484;2022-11-04T07:23:02;10.30;99.90
4564;DHT22;2294;51.818;8.484;2022-11-04T07:25:29;10.30;99.90
4564;DHT22;2294;51.818;8.484;2022-11-04T07:27:58;10.40;99.90
4564;DHT22;2294;51.818;8.484;2022-11-04T07:30:25;10.30;99.90
4564;DHT22;2294;51.818;8.484;2022-11-04T07:32:52;10.40;99.90
4564;DHT22;2294;51.818;8.484;2022-11-04T07:35:19;10.30;99.90
4564;DHT22;2294;51.818;8.484;2022-11-04T07:37:46;10.20;99.90
4564;DHT22;2294;51.818;8.484;2022-11-04T07:40:13;10.20;99.90
4564;DHT22;2294;51.818;8.484;2022-11-04T07:42:40;10.30;99.90
4564;DHT22;2294;51.818;8.484;2022-11-04T07:45:08;10.40;99.90
4564;DHT22;2294;51.818;8.484;2022-11-04T07:47:35;10.50;99.90
4564;DHT22;2294;51.818;8.484;2022-11-04T07:50:03;10.60;99.90
4564;DHT22;2294;51.818;8.484;2022-11-04T07:52:29;10.70;99.90
4564;DHT22;2294;51.818;8.484;2022-11-04T07:54:56;10.80;99.90
4564;DHT22;2294;51.818;8.484;2022-11-04T07:57:23;10.70;99.90
4564;DHT22;2294;51.818;8.484;2022-11-04T07:59:50;10.70;99.90
4564;DHT22;2294;51.818;8.484;2022-11-04T08:02:18;10.70;99.90
4564;DHT22;2294;51.818;8.484;2022-11-04T08:04:45;10.80;99.90
4564;DHT22;2294;51.818;8.484;2022-11-04T08:07:12;10.80;99.90
4564;DHT22;2294;51.818;8.484;2022-11-04T08:09:39;10.90;99.90
4564;DHT22;2294;51.818;8.484;2022-11-04T08:12:06;11.00;99.90
4564;DHT22;2294;51.818;8.484;2022-11-04T08:14:33;11.10;99.90
4564;DHT22;2294;51.818;8.484;2022-11-04T08:17:00;11.20;99.90
4564;DHT22;2294;51.818;8.484;2022-11-04T08:19:29;11.30;99.90
4564;DHT22;2294;51.818;8.484;2022-11-04T08:21:55;11.30;99.90
4564;DHT22;2294;51.818;8.484;2022-11-04T08:24:22;11.30;99.90
4564;DHT22;2294;51.818;8.484;2022-11-04T08:26:49;11.40;99.90
4564;DHT22;2294;51.818;8.484;2022-11-04T08:29:16;11.30;99.90
4564;DHT22;2294;51.818;8.484;2022-11-04T08:31:43;11.40;99.90
4564;DHT22;2294;51.818;8.484;2022-11-04T08:34:10;11.40;99.90
4564;DHT22;2294;51.818;8.484;2022-11-04T08:36:40;11.40;99.90
4564;DHT22;2294;51.818;8.484;2022-11-04T08:39:08;11.30;99.90
4564;DHT22;2294;51.818;8.484;2022-11-04T08:41:36;11.30;99.90
4564;DHT22;2294;51.818;8.484;2022-11-04T08:44:05;11.20;99.90
4564;DHT22;2294;51.818;8.484;2022-11-04T08:46:35;11.00;99.90
4564;DHT22;2294;51.818;8.484;2022-11-04T08:49:03;11.00;99.90
4564;DHT22;2294;51.818;8.484;2022-11-04T08:51:31;11.00;99.90
4564;DHT22;2294;51.818;8.484;2022-11-04T08:54:00;11.00;99.90
4564;DHT22;2294;51.818;8.484;2022-11-04T08:56:28;11.10;99.90
4564;DHT22;2294;51.818;8.484;2022-11-04T08:58:57;11.20;99.90
4564;DHT22;2294;51.818;8.484;2022-11-04T09:01:25;11.20;99.90
4564;DHT22;2294;51.818;8.484;2022-11-04T09:03:52;11.20;99.90
4564;DHT22;2294;51.818;8.484;2022-11-04T09:06:22;11.20;99.90
4564;DHT22;2294;51.818;8.484;2022-11-04T09:08:49;11.00;99.90
4564;DHT22;2294;51.818;8.484;2022-11-04T09:11:18;10.90;99.90
4564;DHT22;2294;51.818;8.484;2022-11-04T09:13:44;11.00;99.90
4564;DHT22;2294;51.818;8.484;2022-11-04T09:16:12;11.10;99.90
4564;DHT22;2294;51.818;8.484;2022-11-04T09:18:39;11.40;99.90
4564;DHT22;2294;51.818;8.484;2022-11-04T09:21:08;11.60;99.90
4564;DHT22;2294;51.818;8.484;2022-11-04T09:23:35;11.80;99.90
4564;DHT22;2294;51.818;8.484;2022-11-04T09:26:07;11.90;99.90
4564;DHT22;2294;51.818;8.484;2022-11-04T09:28:35;12.00;99.90
4564;DHT22;2294;51.818;8.484;2022-11-04T09:31:06;11.90;99.90
4564;DHT22;2294;51.818;8.484;2022-11-04T09:33:33;12.10;99.90
4564;DHT22;2294;51.818;8.484;2022-11-04T09:36:00;12.00;99.90
4564;DHT22;2294;51.818;8.484;2022-11-04T09:38:28;11.90;99.90
4564;DHT22;2294;51.818;8.484;2022-11-04T09:40:55;11.70;99.90
4564;DHT22;2294;51.818;8.484;2022-11-04T09:43:31;11.80;99.90
4564;DHT22;2294;51.818;8.484;2022-11-04T09:46:07;11.90;99.90
4564;DHT22;2294;51.818;8.484;2022-11-04T09:48:38;12.30;99.90
4564;DHT22;2294;51.818;8.484;2022-11-04T09:51:07;12.50;99.90
4564;DHT22;2294;51.818;8.484;2022-11-04T09:53:39;12.50;99.90
4564;DHT22;2294;51.818;8.484;2022-11-04T09:56:13;12.30;99.90
4564;DHT22;2294;51.818;8.484;2022-11-04T09:58:41;12.20;99.90
4564;DHT22;2294;51.818;8.484;2022-11-04T10:01:20;12.20;99.90
4564;DHT22;2294;51.818;8.484;2022-11-04T10:04:00;12.10;99.90
4564;DHT22;2294;51.818;8.484;2022-11-04T10:06:43;12.40;99.90
4564;DHT22;2294;51.818;8.484;2022-11-04T10:09:24;12.20;99.90
4564;DHT22;2294;51.818;8.484;2022-11-04T10:12:04;12.30;99.90
4564;DHT22;2294;51.818;8.484;2022-11-04T10:14:55;12.20;99.90
4564;DHT22;2294;51.818;8.484;2022-11-04T10:17:46;12.00;99.90
4564;DHT22;2294;51.818;8.484;2022-11-04T10:20:26;12.20;99.90
4564;DHT22;2294;51.818;8.484;2022-11-04T10:22:58;12.30;99.90
4564;DHT22;2294;51.818;8.484;2022-11-04T10:25:32;12.30;99.90
4564;DHT22;2294;51.818;8.484;2022-11-04T10:28:02;12.20;99.90
4564;DHT22;2294;51.818;8.484;2022-11-04T10:30:31;12.10;99.90
4564;DHT22;2294;51.818;8.484;2022-11-04T10:33:07;12.00;99.90
4564;DHT22;2294;51.818;8.484;2022-11-04T10:35:37;12.00;99.90
4564;DHT22;2294;51.818;8.484;2022-11-04T10:38:16;12.10;99.90
4564;DHT22;2294;51.818;8.484;2022-11-04T10:40:47;12.30;99.90
4564;DHT22;2294;51.818;8.484;2022-11-04T10:43:18;12.70;99.90
4564;DHT22;2294;51.818;8.484;2022-11-04T10:45:56;13.00;99.90
4564;DHT22;2294;51.818;8.484;2022-11-04T10:48:31;13.10;99.90
4564;DHT22;2294;51.818;8.484;2022-11-04T10:51:01;13.60;99.90
4564;DHT22;2294;51.818;8.484;2022-11-04T10:53:30;13.80;99.90
4564;DHT22;2294;51.818;8.484;2022-11-04T10:56:03;14.10;99.90
4564;DHT22;2294;51.818;8.484;2022-11-04T10:58:35;13.90;99.90
4564;DHT22;2294;51.818;8.484;2022-11-04T11:01:23;14.00;99.90
4564;DHT22;2294;51.818;8.484;2022-11-04T11:03:52;13.80;99.90
4564;DHT22;2294;51.818;8.484;2022-11-04T11:06:23;13.00;99.90
4564;DHT22;2294;51.818;8.484;2022-11-04T11:08:51;13.00;99.90
4564;DHT22;2294;51.818;8.484;2022-11-04T11:11:35;12.70;99.90
4564;DHT22;2294;51.818;8.484;2022-11-04T11:14:02;12.30;99.90
4564;DHT22;2294;51.818;8.484;2022-11-04T11:16:29;12.20;99.90
4564;DHT22;2294;51.818;8.484;2022-11-04T11:19:14;12.30;99.90
4564;DHT22;2294;51.818;8.484;2022-11-04T11:21:43;12.50;99.90
4564;DHT22;2294;51.818;8.484;2022-11-04T11:24:19;12.50;99.90
4564;DHT22;2294;51.818;8.484;2022-11-04T11:26:49;12.80;99.90
4564;DHT22;2294;51.818;8.484;2022-11-04T11:29:23;13.10;99.90
4564;DHT22;2294;51.818;8.484;2022-11-04T11:31:51;13.00;99.90
4564;DHT22;2294;51.818;8.484;2022-11-04T11:34:22;13.20;99.90
4564;DHT22;2294;51.818;8.484;2022-11-04T11:36:53;13.20;99.90
4564;DHT22;2294;51.818;8.484;2022-11-04T11:39:23;13.30;99.90
4564;DHT22;2294;51.818;8.484;2022-11-04T11:41:55;13.50;99.90
4564;DHT22;2294;51.818;8.484;2022-11-04T11:44:27;13.80;99.90
4564;DHT22;2294;51.818;8.484;2022-11-04T11:46:59;13.50;99.90
4564;DHT22;2294;51.818;8.484;2022-11-04T11:49:30;13.30;99.90
4564;DHT22;2294;51.818;8.484;2022-11-04T11:52:22;12.90;99.90
4564;DHT22;2294;51.818;8.484;2022-11-04T11:54:53;12.70;99.90
4564;DHT22;2294;51.818;8.484;2022-11-04T11:57:31;12.70;99.90
4564;DHT22;2294;51.818;8.484;2022-11-04T12:00:02;12.70;99.90
4564;DHT22;2294;51.818;8.484;2022-11-04T12:02:37;13.00;99.90
4564;DHT22;2294;51.818;8.484;2022-11-04T12:05:10;12.70;99.90
4564;DHT22;2294;51.818;8.484;2022-11-04T12:07:42;12.70;99.90
4564;DHT22;2294;51.818;8.484;2022-11-04T12:10:18;12.50;99.90
4564;DHT22;2294;51.818;8.484;2022-11-04T12:12:59;12.40;99.90
4564;DHT22;2294;51.818;8.484;2022-11-04T12:15:38;12.40;99.90
4564;DHT22;2294;51.818;8.484;2022-11-04T12:21:04;12.20;99.90
4564;DHT22;2294;51.818;8.484;2022-11-04T12:23:38;12.20;99.90
4564;DHT22;2294;51.818;8.484;2022-11-04T12:26:16;12.10;99.90
4564;DHT22;2294;51.818;8.484;2022-11-04T12:28:58;12.20;99.90
4564;DHT22;2294;51.818;8.484;2022-11-04T12:31:39;12.10;99.90
4564;DHT22;2294;51.818;8.484;2022-11-04T12:34:13;11.90;99.90
4564;DHT22;2294;51.818;8.484;2022-11-04T12:36:57;11.90;99.90
4564;DHT22;2294;51.818;8.484;2022-11-04T12:39:37;11.80;99.90
4564;DHT22;2294;51.818;8.484;2022-11-04T12:42:16;11.70;99.90
4564;DHT22;2294;51.818;8.484;2022-11-04T12:44:51;11.70;99.90
4564;DHT22;2294;51.818;8.484;2022-11-04T12:47:31;11.70;99.90
4564;DHT22;2294;51.818;8.484;2022-11-04T12:50:12;11.80;99.90
4564;DHT22;2294;51.818;8.484;2022-11-04T12:53:01;11.80;99.90
4564;DHT22;2294;51.818;8.484;2022-11-04T12:55:41;11.70;99.90
4564;DHT22;2294;51.818;8.484;2022-11-04T12:58:20;11.60;99.90
4564;DHT22;2294;51.818;8.484;2022-11-04T13:00:56;11.70;99.90
4564;DHT22;2294;51.818;8.484;2022-11-04T13:03:30;11.70;99.90
4564;DHT22;2294;51.818;8.484;2022-11-04T13:06:02;11.60;99.90
4564;DHT22;2294;51.818;8.484;2022-11-04T13:08:34;11.60;99.90
4564;DHT22;2294;51.818;8.484;2022-11-04T13:11:08;11.60;99.90
4564;DHT22;2294;51.818;8.484;2022-11-04T13:13:51;11.60;99.90
4564;DHT22;2294;51.818;8.484;2022-11-04T13:16:19;11.60;99.90
4564;DHT22;2294;51.818;8.484;2022-11-04T13:18:47;11.50;99.90
4564;DHT22;2294;51.818;8.484;2022-11-04T13:21:17;11.50;99.90
4564;DHT22;2294;51.818;8.484;2022-11-04T13:23:51;11.50;99.90
4564;DHT22;2294;51.818;8.484;2022-11-04T13:26:18;11.50;99.90
4564;DHT22;2294;51.818;8.484;2022-11-04T13:28:49;11.60;99.90
4564;DHT22;2294;51.818;8.484;2022-11-04T13:31:27;11.80;99.90
4564;DHT22;2294;51.818;8.484;2022-11-04T13:34:00;11.90;99.90
4564;DHT22;2294;51.818;8.484;2022-11-04T13:36:37;12.00;99.90
4564;DHT22;2294;51.818;8.484;2022-11-04T13:39:14;12.00;99.90
4564;DHT22;2294;51.818;8.484;2022-11-04T13:45:04;12.10;99.90
4564;DHT22;2294;51.818;8.484;2022-11-04T13:47:34;12.10;99.90
4564;DHT22;2294;51.818;8.484;2022-11-04T13:50:03;12.10;99.90
4564;DHT22;2294;51.818;8.484;2022-11-04T13:52:31;12.10;99.90
4564;DHT22;2294;51.818;8.484;2022-11-04T13:55:02;12.00;99.90
4564;DHT22;2294;51.818;8.484;2022-11-04T13:57:32;12.00;99.90
4564;DHT22;2294;51.818;8.484;2022-11-04T14:00:22;12.10;99.90
4564;DHT22;2294;51.818;8.484;2022-11-04T14:02:50;12.00;99.90
4564;DHT22;2294;51.818;8.484;2022-11-04T14:06:00;12.00;99.90
4564;DHT22;2294;51.818;8.484;2022-11-04T14:08:28;12.10;99.90
4564;DHT22;2294;51.818;8.484;2022-11-04T14:11:05;12.10;99.90
4564;DHT22;2294;51.818;8.484;2022-11-04T14:16:42;12.10;99.90
4564;DHT22;2294;51.818;8.484;2022-11-04T14:22:29;12.10;99.90
4564;DHT22;2294;51.818;8.484;2022-11-04T14:24:58;12.10;99.90
4564;DHT22;2294;51.818;8.484;2022-11-04T14:27:32;12.20;99.90
4564;DHT22;2294;51.818;8.484;2022-11-04T14:30:00;12.20;99.90
4564;DHT22;2294;51.818;8.484;2022-11-04T14:32:31;12.30;99.90
4564;DHT22;2294;51.818;8.484;2022-11-04T14:35:02;12.20;99.90
4564;DHT22;2294;51.818;8.484;2022-11-04T14:37:32;12.30;99.90
4564;DHT22;2294;51.818;8.484;2022-11-04T14:40:01;12.20;99.90
4564;DHT22;2294;51.818;8.484;2022-11-04T14:42:47;12.20;99.90
4564;DHT22;2294;51.818;8.484;2022-11-04T14:45:18;12.10;99.90
4564;DHT22;2294;51.818;8.484;2022-11-04T14:47:48;12.00;99.90
4564;DHT22;2294;51.818;8.484;2022-11-04T14:50:19;11.90;99.90
4564;DHT22;2294;51.818;8.484;2022-11-04T14:52:50;11.80;99.90
4564;DHT22;2294;51.818;8.484;2022-11-04T14:55:20;11.60;99.90
4564;DHT22;2294;51.818;8.484;2022-11-04T14:57:50;11.60;99.90
4564;DHT22;2294;51.818;8.484;2022-11-04T15:00:24;11.40;99.90
4564;DHT22;2294;51.818;8.484;2022-11-04T15:02:59;11.30;99.90
4564;DHT22;2294;51.818;8.484;2022-11-04T15:05:27;11.30;99.90
4564;DHT22;2294;51.818;8.484;2022-11-04T15:07:58;11.10;99.90
4564;DHT22;2294;51.818;8.484;2022-11-04T15:10:26;11.20;99.90
4564;DHT22;2294;51.818;8.484;2022-11-04T15:13:01;11.20;99.90
4564;DHT22;2294;51.818;8.484;2022-11-04T15:15:31;11.20;99.90
4564;DHT22;2294;51.818;8.484;2022-11-04T15:18:01;11.30;99.90
4564;DHT22;2294;51.818;8.484;2022-11-04T15:20:31;11.20;99.90
4564;DHT22;2294;51.818;8.484;2022-11-04T15:23:00;11.10;99.90
4564;DHT22;2294;51.818;8.484;2022-11-04T15:25:28;11.00;99.90
4564;DHT22;2294;51.818;8.484;2022-11-04T15:27:55;11.10;99.90
4564;DHT22;2294;51.818;8.484;2022-11-04T15:30:26;11.10;99.90
4564;DHT22;2294;51.818;8.484;2022-11-04T15:32:57;11.10;99.90
4564;DHT22;2294;51.818;8.484;2022-11-04T15:35:26;11.10;99.90
4564;DHT22;2294;51.818;8.484;2022-11-04T15:37:54;11.10;99.90
4564;DHT22;2294;51.818;8.484;2022-11-04T15:40:23;11.20;99.90
4564;DHT22;2294;51.818;8.484;2022-11-04T15:42:52;11.10;99.90
4564;DHT22;2294;51.818;8.484;2022-11-04T15:45:29;11.10;99.90
4564;DHT22;2294;51.818;8.484;2022-11-04T15:48:25;11.10;99.90
4564;DHT22;2294;51.818;8.484;2022-11-04T15:51:01;11.10;99.90
4564;DHT22;2294;51.818;8.484;2022-11-04T15:53:30;11.10;99.90
4564;DHT22;2294;51.818;8.484;2022-11-04T15:55:57;11.00;99.90
4564;DHT22;2294;51.818;8.484;2022-11-04T15:58:25;11.00;99.90
4564;DHT22;2294;51.818;8.484;2022-11-04T16:00:54;11.00;99.90
4564;DHT22;2294;51.818;8.484;2022-11-04T16:03:22;11.00;99.90
4564;DHT22;2294;51.818;8.484;2022-11-04T16:06:00;10.90;99.90
4564;DHT22;2294;51.818;8.484;2022-11-04T16:08:29;10.80;99.90
4564;DHT22;2294;51.818;8.484;2022-11-04T16:11:11;10.80;99.90
4564;DHT22;2294;51.818;8.484;2022-11-04T16:13:39;11.00;99.90
4564;DHT22;2294;51.818;8.484;2022-11-04T16:16:20;11.00;99.90
4564;DHT22;2294;51.818;8.484;2022-11-04T16:18:51;11.00;99.90
4564;DHT22;2294;51.818;8.484;2022-11-04T16:21:24;11.00;99.90
4564;DHT22;2294;51.818;8.484;2022-11-04T16:23:57;11.00;99.90
4564;DHT22;2294;51.818;8.484;2022-11-04T16:26:29;10.90;99.90
4564;DHT22;2294;51.818;8.484;2022-11-04T16:28:59;10.80;99.90
4564;DHT22;2294;51.818;8.484;2022-11-04T16:31:32;10.80;99.90
4564;DHT22;2294;51.818;8.484;2022-11-04T16:33:59;10.80;99.90
4564;DHT22;2294;51.818;8.484;2022-11-04T16:36:26;10.80;99.90
4564;DHT22;2294;51.818;8.484;2022-11-04T16:38:55;10.70;99.90
4564;DHT22;2294;51.818;8.484;2022-11-04T16:41:23;10.70;99.90
4564;DHT22;2294;51.818;8.484;2022-11-04T16:43:51;10.60;99.90
4564;DHT22;2294;51.818;8.484;2022-11-04T16:46:19;10.40;99.90
4564;DHT22;2294;51.818;8.484;2022-11-04T16:48:48;10.40;99.90
4564;DHT22;2294;51.818;8.484;2022-11-04T16:51:16;10.30;99.90